Time;durP1;ratioP1;P1;durP2;ratioP2;P2;SDS_P1;SDS_P2;PMS_P1;PMS_P2;Temp;Humidity;BMP_temperature;BMP_pressure;BME280_temperature;BME280_humidity;BME280_pressure;Samples;Min_cycle;Max_cycle;Signal;HPM_P1;HPM_P2
2023/07/05 00:01:19;;;;;;;1.27;1.17;;;26.40;44.60;;;;;;5148240;27;45126;-69
2023/07/05 00:03:46;;;;;;;1.00;1.00;;;26.40;44.70;;;;;;5148298;27;45264;-70
2023/07/05 00:06:14;;;;;;;1.20;1.08;;;26.40;44.70;;;;;;5148069;27;47479;-69
2023/07/05 00:08:41;;;;;;;1.10;1.00;;;26.30;44.70;;;;;;5148015;27;45361;-69
2023/07/05 00:11:10;;;;;;;0.88;0.88;;;26.30;44.70;;;;;;5148093;27;45354;-69
2023/07/05 00:13:37;;;;;;;1.13;1.00;;;26.30;44.70;;;;;;5148170;27;45454;-69
2023/07/05 00:16:04;;;;;;;1.33;1.00;;;26.30;44.70;;;;;;5147762;27;45551;-69
2023/07/05 00:18:31;;;;;;;0.82;0.82;;;26.30;44.80;;;;;;5147853;27;45228;-69
2023/07/05 00:21:00;;;;;;;1.02;0.82;;;26.30;44.80;;;;;;5150552;27;45171;-69
2023/07/05 00:23:28;;;;;;;1.00;0.80;;;26.20;44.80;;;;;;5151827;27;45403;-69
2023/07/05 00:25:55;;;;;;;1.92;1.02;;;26.20;44.80;;;;;;5151381;27;46454;-69
2023/07/05 00:28:21;;;;;;;1.20;1.00;;;26.20;44.80;;;;;;5151478;27;45279;-69
2023/07/05 00:30:48;;;;;;;2.05;1.00;;;26.20;44.90;;;;;;5151627;27;45126;-70
2023/07/05 00:33:15;;;;;;;0.95;0.95;;;26.20;44.90;;;;;;5151645;27;45279;-69
2023/07/05 00:35:50;;;;;;;0.88;0.88;;;26.20;44.90;;;;;;5151424;27;45424;-69
2023/07/05 00:38:17;;;;;;;1.27;1.10;;;26.20;44.90;;;;;;5151271;27;45311;-69
2023/07/05 00:40:45;;;;;;;1.00;0.90;;;26.20;45.00;;;;;;5151351;27;45268;-69
2023/07/05 00:43:12;;;;;;;1.10;1.00;;;26.10;44.90;;;;;;5151473;27;45439;-69
2023/07/05 00:45:44;;;;;;;1.10;1.00;;;26.10;45.00;;;;;;5151159;27;46476;-69
2023/07/05 00:48:14;;;;;;;1.20;1.05;;;26.10;45.00;;;;;;5151078;27;45326;-69
2023/07/05 00:50:42;;;;;;;0.93;0.85;;;26.10;45.10;;;;;;5151143;27;45176;-69
2023/07/05 00:53:09;;;;;;;1.08;0.90;;;26.10;45.10;;;;;;5151279;27;45344;-69
2023/07/05 00:55:36;;;;;;;0.85;0.80;;;26.10;45.10;;;;;;5150916;27;46331;-69
2023/07/05 00:58:04;;;;;;;1.35;0.90;;;26.10;45.10;;;;;;5151108;27;45275;-69
2023/07/05 01:00:31;;;;;;;0.70;0.70;;;26.10;45.00;;;;;;5151009;27;45309;-69
2023/07/05 01:02:58;;;;;;;2.28;0.90;;;26.00;45.00;;;;;;5151099;27;45404;-69
2023/07/05 01:05:25;;;;;;;1.02;0.90;;;26.00;45.00;;;;;;5150584;27;45236;-69
2023/07/05 01:07:52;;;;;;;0.95;0.75;;;26.00;45.00;;;;;;5150781;27;45248;-69
2023/07/05 01:10:20;;;;;;;0.88;0.88;;;26.00;45.00;;;;;;5150954;27;45187;-69
2023/07/05 01:12:51;;;;;;;0.93;0.93;;;26.00;45.00;;;;;;5151101;27;45544;-69
2023/07/05 01:15:21;;;;;;;1.33;0.93;;;26.00;45.00;;;;;;5150922;27;45179;-69
2023/07/05 01:17:50;;;;;;;1.00;0.90;;;26.00;45.00;;;;;;5150652;27;45343;-69
2023/07/05 01:20:24;;;;;;;0.90;0.90;;;26.00;45.00;;;;;;5150834;27;45293;-70
2023/07/05 01:23:05;;;;;;;0.90;0.90;;;26.00;44.90;;;;;;5150841;27;45452;-69
2023/07/05 01:25:47;;;;;;;0.90;0.90;;;26.00;45.00;;;;;;5150382;27;45315;-69
2023/07/05 01:28:26;;;;;;;1.42;0.98;;;26.00;45.00;;;;;;5150642;27;45254;-69
2023/07/05 01:31:05;;;;;;;0.90;0.90;;;25.90;45.60;;;;;;5150628;27;45379;-69
2023/07/05 01:33:35;;;;;;;2.35;0.90;;;25.90;45.50;;;;;;5150675;27;45256;-69
2023/07/05 01:36:02;;;;;;;1.08;0.90;;;25.90;44.90;;;;;;5150333;27;45185;-69
2023/07/05 01:38:28;;;;;;;0.98;0.90;;;25.90;45.00;;;;;;5150594;27;45416;-69
2023/07/05 01:41:02;;;;;;;0.77;0.77;;;25.90;45.00;;;;;;5150715;27;45293;-70
2023/07/05 01:43:29;;;;;;;1.20;1.10;;;25.90;45.00;;;;;;5150681;27;45404;-69
2023/07/05 01:46:18;;;;;;;2.42;0.90;;;25.90;45.10;;;;;;5150130;27;46302;-69
2023/07/05 01:49:04;;;;;;;0.98;0.93;;;25.90;45.10;;;;;;5150134;27;45145;-69
2023/07/05 01:51:33;;;;;;;0.85;0.85;;;25.80;45.00;;;;;;5147298;27;45168;-69
2023/07/05 01:54:03;;;;;;;1.50;0.85;;;25.80;45.10;;;;;;5150349;27;45396;-69
2023/07/05 01:56:32;;;;;;;1.30;1.05;;;25.80;45.10;;;;;;5150102;27;46375;-69
2023/07/05 01:58:58;;;;;;;0.80;0.73;;;25.80;45.10;;;;;;5150212;27;45425;-69
2023/07/05 02:01:25;;;;;;;0.90;0.90;;;25.80;45.20;;;;;;5150072;27;45260;-69
2023/07/05 02:03:53;;;;;;;0.80;0.80;;;25.80;45.20;;;;;;5150139;27;45395;-69
2023/07/05 02:06:20;;;;;;;0.95;0.82;;;25.80;45.10;;;;;;5149691;27;45146;-69
2023/07/05 02:08:50;;;;;;;1.10;1.00;;;25.80;45.10;;;;;;5149831;27;45253;-69
2023/07/05 02:11:16;;;;;;;0.90;0.80;;;25.80;45.10;;;;;;5150152;27;45324;-69
2023/07/05 02:13:43;;;;;;;1.08;0.90;;;25.80;45.10;;;;;;5150006;27;45386;-70
2023/07/05 02:16:10;;;;;;;1.40;0.63;;;25.70;45.10;;;;;;5149599;27;45548;-70
2023/07/05 02:18:37;;;;;;;0.70;0.70;;;25.70;45.10;;;;;;5149812;27;45258;-69
2023/07/05 02:21:10;;;;;;;0.80;0.80;;;25.70;45.10;;;;;;5149728;27;45241;-69
2023/07/05 02:23:37;;;;;;;0.57;0.57;;;25.70;45.20;;;;;;5149915;27;45238;-69
2023/07/05 02:26:05;;;;;;;1.00;0.90;;;25.70;45.20;;;;;;5149308;27;45427;-69
2023/07/05 02:28:32;;;;;;;1.00;1.00;;;25.60;45.10;;;;;;5149351;27;45356;-69
2023/07/05 02:31:04;;;;;;;0.80;0.80;;;25.70;45.20;;;;;;5149685;27;45292;-69
2023/07/05 02:33:30;;;;;;;0.80;0.80;;;25.70;45.20;;;;;;5149818;27;45418;-69
2023/07/05 02:35:57;;;;;;;0.70;0.68;;;25.60;45.10;;;;;;5149333;27;46676;-69
2023/07/05 02:38:25;;;;;;;0.75;0.75;;;25.60;45.20;;;;;;5149330;27;45321;-69
2023/07/05 02:40:52;;;;;;;0.95;0.90;;;25.60;45.20;;;;;;5149460;27;45275;-67
2023/07/05 02:43:19;;;;;;;1.08;0.93;;;25.60;45.20;;;;;;5148406;27;45322;-69
2023/07/05 02:45:46;;;;;;;1.10;1.00;;;25.60;45.30;;;;;;5149045;27;45472;-67
2023/07/05 02:48:13;;;;;;;0.90;0.90;;;25.60;45.30;;;;;;5149165;27;45449;-69
2023/07/05 02:50:40;;;;;;;0.88;0.88;;;25.60;45.30;;;;;;5149214;27;45210;-70
2023/07/05 02:53:07;;;;;;;1.33;0.80;;;25.50;45.30;;;;;;5149500;27;45305;-70
2023/07/05 02:55:35;;;;;;;0.93;0.80;;;25.50;45.30;;;;;;5149270;27;46347;-70
2023/07/05 02:58:02;;;;;;;1.08;0.98;;;25.50;45.30;;;;;;5149090;27;45346;-70
2023/07/05 03:00:30;;;;;;;0.77;0.77;;;25.50;45.30;;;;;;5149417;27;45245;-70
2023/07/05 03:02:57;;;;;;;0.68;0.68;;;25.50;45.30;;;;;;5149563;27;45177;-70
2023/07/05 03:05:24;;;;;;;0.95;0.90;;;25.50;45.30;;;;;;5148795;27;46359;-70
2023/07/05 03:07:50;;;;;;;0.90;0.90;;;25.50;45.30;;;;;;5148889;27;45317;-70
2023/07/05 03:10:17;;;;;;;0.80;0.80;;;25.50;45.90;;;;;;5149069;27;45500;-70
2023/07/05 03:12:45;;;;;;;0.90;0.90;;;25.50;45.90;;;;;;5148971;27;45230;-69
2023/07/05 03:15:12;;;;;;;1.13;0.82;;;25.50;45.30;;;;;;5148511;27;46276;-70
2023/07/05 03:17:39;;;;;;;1.20;1.10;;;25.40;45.30;;;;;;5148825;27;45448;-70
2023/07/05 03:20:07;;;;;;;1.42;0.57;;;25.40;45.30;;;;;;5149047;27;45342;-70
2023/07/05 03:22:34;;;;;;;1.00;0.90;;;25.40;45.30;;;;;;5149083;27;45237;-70
2023/07/05 03:25:01;;;;;;;0.82;0.65;;;25.40;45.30;;;;;;5148473;27;46678;-71
2023/07/05 03:27:28;;;;;;;0.80;0.80;;;25.40;45.30;;;;;;5148532;27;45271;-70
2023/07/05 03:29:57;;;;;;;0.77;0.73;;;25.40;45.40;;;;;;5148860;27;45263;-70
2023/07/05 03:32:24;;;;;;;0.90;0.90;;;25.40;45.40;;;;;;5148809;27;45317;-70
2023/07/05 03:34:51;;;;;;;1.00;1.00;;;25.30;45.30;;;;;;5148444;27;45212;-70
2023/07/05 03:37:18;;;;;;;0.70;0.70;;;25.30;45.30;;;;;;5148461;27;45213;-69
2023/07/05 03:39:44;;;;;;;0.98;0.80;;;25.30;45.30;;;;;;5148897;27;45428;-69
2023/07/05 03:42:11;;;;;;;0.70;0.70;;;25.30;45.30;;;;;;5148558;27;45325;-69
2023/07/05 03:44:38;;;;;;;1.15;0.70;;;25.30;45.30;;;;;;5148590;27;47262;-69
2023/07/05 03:47:07;;;;;;;0.52;0.52;;;25.30;45.30;;;;;;5148183;27;45233;-69
2023/07/05 03:49:34;;;;;;;1.20;0.90;;;25.30;45.30;;;;;;5148708;27;45220;-70
2023/07/05 03:52:00;;;;;;;0.90;0.80;;;25.30;45.30;;;;;;5148216;27;45406;-69
2023/07/05 03:54:28;;;;;;;0.80;0.80;;;25.30;45.30;;;;;;5147797;27;47564;-69
2023/07/05 03:56:55;;;;;;;0.80;0.80;;;25.30;45.30;;;;;;5148224;27;45208;-69
2023/07/05 03:59:21;;;;;;;0.80;0.80;;;25.30;45.40;;;;;;5148172;27;45209;-69
2023/07/05 04:01:48;;;;;;;0.77;0.77;;;25.20;45.30;;;;;;5148247;27;45249;-70
2023/07/05 04:04:16;;;;;;;0.68;0.68;;;25.20;45.30;;;;;;5148129;27;45285;-69
2023/07/05 04:06:43;;;;;;;0.98;0.80;;;25.20;45.30;;;;;;5148114;27;45267;-69
2023/07/05 04:09:10;;;;;;;0.70;0.70;;;25.20;45.30;;;;;;5148256;27;45279;-69
2023/07/05 04:11:37;;;;;;;0.80;0.80;;;25.20;45.30;;;;;;5148417;27;45263;-70
2023/07/05 04:14:04;;;;;;;0.75;0.75;;;25.20;45.40;;;;;;5147895;27;46634;-69
2023/07/05 04:16:31;;;;;;;1.45;0.70;;;25.20;45.40;;;;;;5148007;27;45266;-69
2023/07/05 04:18:58;;;;;;;1.00;0.90;;;25.20;45.40;;;;;;5148021;27;45375;-69
2023/07/05 04:21:26;;;;;;;0.70;0.70;;;25.20;45.50;;;;;;5148332;27;45563;-69
2023/07/05 04:23:53;;;;;;;1.80;0.90;;;25.20;45.50;;;;;;5147807;27;45227;-69
2023/07/05 04:26:21;;;;;;;1.00;0.73;;;25.10;45.50;;;;;;5147748;27;45438;-69
2023/07/05 04:28:48;;;;;;;1.02;1.02;;;25.10;45.50;;;;;;5148084;27;45216;-69
2023/07/05 04:31:20;;;;;;;0.70;0.70;;;25.10;45.50;;;;;;5148341;27;45477;-69
2023/07/05 04:33:47;;;;;;;0.80;0.70;;;25.10;45.50;;;;;;5147831;27;45347;-70
2023/07/05 04:36:13;;;;;;;1.35;0.90;;;25.10;45.50;;;;;;5147407;27;45281;-69
2023/07/05 04:38:42;;;;;;;0.73;0.73;;;25.10;45.50;;;;;;5147897;27;45191;-69
2023/07/05 04:41:09;;;;;;;0.90;0.90;;;25.10;45.50;;;;;;5148103;27;45493;-69
2023/07/05 04:43:35;;;;;;;1.02;0.93;;;25.10;45.50;;;;;;5147682;27;45375;-69
2023/07/05 04:46:02;;;;;;;0.80;0.80;;;25.10;45.50;;;;;;5147282;27;45286;-69
2023/07/05 04:48:30;;;;;;;1.73;1.05;;;25.10;45.50;;;;;;5147651;27;45312;-69
2023/07/05 04:50:57;;;;;;;1.95;0.90;;;25.10;45.50;;;;;;5147820;27;45450;-69
2023/07/05 04:53:25;;;;;;;0.90;0.90;;;25.10;45.50;;;;;;5147417;27;46709;-69
2023/07/05 04:55:54;;;;;;;0.77;0.77;;;25.10;46.10;;;;;;5147487;27;45284;-69
2023/07/05 04:58:21;;;;;;;1.08;0.90;;;25.10;45.50;;;;;;5147497;27;45229;-69
2023/07/05 05:00:49;;;;;;;0.95;0.95;;;25.10;45.50;;;;;;5147900;27;45544;-70
2023/07/05 05:03:16;;;;;;;0.88;0.82;;;25.10;45.60;;;;;;5147252;27;45429;-69
2023/07/05 05:05:43;;;;;;;0.82;0.80;;;25.10;46.20;;;;;;5147419;27;45266;-69
2023/07/05 05:08:10;;;;;;;0.95;0.85;;;25.10;46.20;;;;;;5150271;27;45328;-70
2023/07/05 05:10:37;;;;;;;0.70;0.70;;;25.00;45.60;;;;;;5151221;27;45118;-69
2023/07/05 05:13:05;;;;;;;0.90;0.90;;;25.00;45.60;;;;;;5150783;27;45564;-69
2023/07/05 05:15:35;;;;;;;0.80;0.80;;;25.00;45.60;;;;;;5144553;27;45441;-69
2023/07/05 05:18:02;;;;;;;0.65;0.65;;;25.00;45.60;;;;;;5145742;27;45162;-69
2023/07/05 05:20:29;;;;;;;2.65;0.90;;;25.00;45.60;;;;;;5144731;27;45551;-69
2023/07/05 05:22:56;;;;;;;0.88;0.88;;;25.00;46.40;;;;;;5150570;27;45255;-69
2023/07/05 05:25:23;;;;;;;1.35;1.10;;;25.00;45.80;;;;;;5150612;27;45353;-69
2023/07/05 05:27:50;;;;;;;1.08;0.98;;;25.00;45.80;;;;;;5150715;27;45394;-69
2023/07/05 05:30:18;;;;;;;1.30;0.98;;;25.00;45.80;;;;;;5150841;27;45178;-69
2023/07/05 05:32:46;;;;;;;0.98;0.80;;;25.00;45.70;;;;;;5150193;27;45500;-69
2023/07/05 05:35:12;;;;;;;2.10;0.80;;;25.00;45.80;;;;;;5150314;27;45231;-69
2023/07/05 05:37:39;;;;;;;0.70;0.70;;;25.00;45.90;;;;;;5150418;27;45291;-69
2023/07/05 05:40:07;;;;;;;1.35;0.90;;;25.00;45.80;;;;;;5150648;27;45171;-69
2023/07/05 05:42:34;;;;;;;3.53;0.90;;;25.00;45.90;;;;;;5150068;27;46286;-69
2023/07/05 05:45:01;;;;;;;1.08;0.98;;;25.00;45.80;;;;;;5150226;27;45355;-69
2023/07/05 05:47:29;;;;;;;1.70;1.13;;;25.00;45.80;;;;;;5150294;27;45356;-69
2023/07/05 05:49:56;;;;;;;1.05;0.75;;;25.00;45.90;;;;;;5150470;27;45206;-69
2023/07/05 05:52:23;;;;;;;1.33;1.00;;;25.00;45.80;;;;;;5149318;27;46720;-69
2023/07/05 05:54:50;;;;;;;1.25;1.00;;;25.00;45.90;;;;;;5150146;27;45299;-69
2023/07/05 05:57:16;;;;;;;1.08;0.90;;;25.00;45.90;;;;;;5150240;27;45305;-68
2023/07/05 05:59:43;;;;;;;1.08;0.98;;;25.00;45.90;;;;;;5150154;27;45225;-69
2023/07/05 06:02:10;;;;;;;3.53;1.10;;;25.00;46.00;;;;;;5149599;27;46662;-69
2023/07/05 06:04:38;;;;;;;0.85;0.85;;;25.00;46.00;;;;;;5150217;27;45343;-69
2023/07/05 06:07:05;;;;;;;1.40;1.10;;;25.00;46.20;;;;;;5150140;27;45272;-69
2023/07/05 06:09:38;;;;;;;2.08;1.00;;;24.90;47.10;;;;;;5149972;27;45303;-70
2023/07/05 06:12:05;;;;;;;2.17;1.08;;;24.90;48.20;;;;;;5149620;27;45484;-70
2023/07/05 06:14:32;;;;;;;4.78;1.33;;;24.90;48.60;;;;;;5149544;27;45327;-69
2023/07/05 06:16:59;;;;;;;1.15;1.02;;;24.90;49.20;;;;;;5149844;27;45244;-70
2023/07/05 06:19:26;;;;;;;5.35;1.10;;;24.90;49.20;;;;;;5144281;27;45464;-69
2023/07/05 06:21:54;;;;;;;1.83;1.00;;;24.90;49.30;;;;;;5149272;27;45503;-70
2023/07/05 06:24:21;;;;;;;6.82;1.45;;;24.80;49.60;;;;;;5149249;27;45275;-69
2023/07/05 06:26:47;;;;;;;1.98;1.20;;;24.80;50.50;;;;;;5148940;27;45448;-69
2023/07/05 06:29:14;;;;;;;1.58;1.13;;;24.80;50.00;;;;;;5149567;27;45398;-69
2023/07/05 06:31:41;;;;;;;3.13;1.10;;;24.80;49.10;;;;;;5148771;27;45502;-69
2023/07/05 06:34:08;;;;;;;3.60;1.17;;;24.80;48.80;;;;;;5148935;27;45347;-69
2023/07/05 06:36:35;;;;;;;2.08;1.30;;;24.80;48.60;;;;;;5156603;27;45209;-69
2023/07/05 06:39:03;;;;;;;0.95;0.90;;;24.90;48.70;;;;;;5155833;27;45354;-69
2023/07/05 06:41:30;;;;;;;2.03;1.02;;;24.80;48.50;;;;;;5148756;27;45447;-69
2023/07/05 06:43:56;;;;;;;2.33;1.27;;;24.80;48.40;;;;;;5148756;27;45253;-69
2023/07/05 06:46:23;;;;;;;1.17;1.13;;;24.80;48.30;;;;;;5149094;27;45219;-69
2023/07/05 06:48:50;;;;;;;2.47;1.17;;;24.80;48.30;;;;;;5149390;27;45181;-69
2023/07/05 06:51:17;;;;;;;2.70;1.23;;;24.80;48.10;;;;;;5148313;27;45257;-69
2023/07/05 06:53:44;;;;;;;2.33;1.20;;;24.80;48.10;;;;;;5148879;27;45388;-69
2023/07/05 06:56:12;;;;;;;1.58;1.15;;;24.80;48.00;;;;;;5148828;27;45304;-70
2023/07/05 06:58:39;;;;;;;5.47;1.20;;;24.80;48.10;;;;;;5149517;27;45305;-71
2023/07/05 07:01:06;;;;;;;5.53;2.88;;;24.80;48.80;;;;;;5150101;27;46388;-67
2023/07/05 07:03:33;;;;;;;7.90;2.30;;;24.80;50.10;;;;;;5151072;27;45247;-69
2023/07/05 07:06:00;;;;;;;5.60;2.00;;;24.80;50.40;;;;;;5151630;27;45310;-68
2023/07/05 07:08:29;;;;;;;8.48;2.08;;;24.80;50.10;;;;;;5151018;27;45232;-69
2023/07/05 07:10:56;;;;;;;4.18;2.08;;;24.90;50.40;;;;;;5149284;27;45550;-68
2023/07/05 07:13:25;;;;;;;5.45;2.10;;;24.90;49.80;;;;;;5150334;27;45294;-68
2023/07/05 07:15:59;;;;;;;10.88;2.20;;;25.00;49.90;;;;;;5149966;27;45300;-68
2023/07/05 07:18:26;;;;;;;5.93;1.95;;;25.00;49.40;;;;;;5149720;27;45407;-69
2023/07/05 07:20:54;;;;;;;4.65;1.88;;;25.10;49.80;;;;;;5150765;27;46694;-69
2023/07/05 07:23:21;;;;;;;3.55;2.15;;;25.20;49.30;;;;;;5137685;27;45245;-68
2023/07/05 07:25:48;;;;;;;7.22;2.28;;;25.30;49.00;;;;;;5148126;27;45285;-68
2023/07/05 07:28:15;;;;;;;17.75;5.07;;;25.30;48.70;;;;;;5150168;27;45398;-70
2023/07/05 07:30:43;;;;;;;15.10;6.35;;;25.30;48.80;;;;;;5148814;27;46386;-68
2023/07/05 07:33:11;;;;;;;13.63;5.15;;;25.30;48.80;;;;;;5149466;27;45241;-66
2023/07/05 07:35:38;;;;;;;14.48;4.85;;;25.40;48.70;;;;;;5149858;27;45307;-67
2023/07/05 07:38:05;;;;;;;10.30;4.03;;;25.40;48.70;;;;;;5149903;27;44856;-66
2023/07/05 07:40:36;;;;;;;16.63;4.93;;;25.40;48.60;;;;;;5151141;27;45300;-70
2023/07/05 07:43:04;;;;;;;14.30;4.28;;;25.50;48.80;;;;;;5151888;27;45212;-70
2023/07/05 07:45:31;;;;;;;21.35;4.65;;;25.50;49.10;;;;;;5151564;27;45495;-68
2023/07/05 07:47:59;;;;;;;13.48;3.58;;;25.60;50.10;;;;;;5151528;27;45343;-66
2023/07/05 07:50:26;;;;;;;6.25;3.38;;;25.60;50.20;;;;;;5152635;27;46660;-69
2023/07/05 07:52:53;;;;;;;4.43;2.40;;;25.80;50.20;;;;;;5150999;27;45406;-66
2023/07/05 07:55:21;;;;;;;18.00;3.05;;;25.90;50.60;;;;;;5150891;27;45309;-65
2023/07/05 07:57:47;;;;;;;10.93;2.40;;;25.90;50.80;;;;;;5150845;27;45308;-69
2023/07/05 08:00:15;;;;;;;4.20;1.73;;;26.00;51.40;;;;;;5147226;27;45345;-69
2023/07/05 08:02:42;;;;;;;6.22;1.63;;;26.00;51.10;;;;;;5127569;27;45181;-70
2023/07/05 08:05:15;;;;;;;11.80;7.22;;;26.00;51.60;;;;;;5134260;27;45284;-68
2023/07/05 08:07:41;;;;;;;4.47;4.05;;;25.90;51.90;;;;;;5129174;27;45281;-69
2023/07/05 08:10:09;;;;;;;9.40;3.33;;;25.90;51.80;;;;;;5147623;27;45410;-68
2023/07/05 08:12:36;;;;;;;5.03;3.17;;;25.90;52.20;;;;;;5147511;27;45326;-68
2023/07/05 08:15:04;;;;;;;5.75;2.60;;;26.00;52.20;;;;;;5148002;27;45298;-69
2023/07/05 08:17:31;;;;;;;3.65;2.30;;;26.00;52.10;;;;;;5147998;27;45184;-70
2023/07/05 08:19:58;;;;;;;6.85;2.35;;;26.00;52.20;;;;;;5147852;27;45607;-70
2023/07/05 08:22:26;;;;;;;4.40;2.13;;;25.90;52.60;;;;;;5148553;27;45424;-70
2023/07/05 08:24:53;;;;;;;4.68;2.15;;;25.90;52.10;;;;;;5140461;27;45447;-69
2023/07/05 08:27:20;;;;;;;6.53;2.70;;;26.00;52.10;;;;;;5145743;27;45282;-70
2023/07/05 08:29:47;;;;;;;3.13;2.25;;;25.90;52.50;;;;;;5147819;27;46396;-75
2023/07/05 08:32:14;;;;;;;6.25;2.42;;;25.90;52.60;;;;;;5146967;27;45395;-71
2023/07/05 08:34:40;;;;;;;4.30;2.40;;;25.90;52.50;;;;;;5147526;27;45446;-72
2023/07/05 08:37:07;;;;;;;16.02;6.78;;;26.00;52.40;;;;;;5147971;27;45297;-71
2023/07/05 08:39:36;;;;;;;7.00;3.80;;;26.10;51.80;;;;;;5147734;27;46691;-73
2023/07/05 08:42:17;;;;;;;6.07;2.97;;;26.10;51.70;;;;;;5145905;27;45246;-71
2023/07/05 08:45:05;;;;;;;9.77;2.92;;;26.10;51.80;;;;;;5148196;27;45164;-71
2023/07/05 08:47:34;;;;;;;3.70;1.80;;;26.00;51.70;;;;;;5151119;27;45183;-71
2023/07/05 08:50:05;;;;;;;3.15;1.95;;;25.90;51.90;;;;;;5151505;27;46420;-71
2023/07/05 08:52:34;;;;;;;2.78;2.03;;;25.90;52.00;;;;;;5151495;27;45218;-71
2023/07/05 08:55:04;;;;;;;3.35;1.80;;;25.70;52.50;;;;;;5150243;27;45533;-72
2023/07/05 08:57:34;;;;;;;1.83;1.67;;;25.60;52.70;;;;;;5149492;27;45159;-73
2023/07/05 09:00:01;;;;;;;5.68;1.80;;;25.50;52.70;;;;;;5139811;27;48555;-72
2023/07/05 09:02:29;;;;;;;7.10;2.47;;;25.50;52.60;;;;;;5135401;27;45477;-72
2023/07/05 09:04:58;;;;;;;3.53;2.22;;;25.50;53.40;;;;;;5153299;27;45144;-69
2023/07/05 09:07:31;;;;;;;2.35;1.80;;;25.50;52.80;;;;;;5154841;27;45510;-71
2023/07/05 09:10:02;;;;;;;2.03;1.70;;;25.60;52.50;;;;;;5150537;27;46348;-71
2023/07/05 09:12:34;;;;;;;4.90;1.80;;;25.60;52.60;;;;;;5146936;27;45440;-71
2023/07/05 09:15:18;;;;;;;1.98;1.30;;;25.60;53.00;;;;;;5150450;27;45243;-69
2023/07/05 09:17:52;;;;;;;4.50;1.98;;;25.60;52.50;;;;;;5144771;27;45503;-74
2023/07/05 09:20:30;;;;;;;2.45;1.80;;;25.60;52.00;;;;;;5143349;27;46412;-70
2023/07/05 09:22:57;;;;;;;3.72;2.20;;;25.60;51.60;;;;;;5142933;27;45331;-71
2023/07/05 09:25:24;;;;;;;5.68;2.20;;;25.70;51.80;;;;;;5149819;27;45462;-71
2023/07/05 09:27:54;;;;;;;4.53;2.03;;;25.70;52.30;;;;;;5150888;27;45396;-68
2023/07/05 09:30:24;;;;;;;2.70;1.92;;;25.70;51.70;;;;;;5149241;27;46346;-70
2023/07/05 09:33:03;;;;;;;2.92;2.25;;;25.80;51.30;;;;;;5150060;27;45234;-70
2023/07/05 09:35:30;;;;;;;5.53;2.50;;;25.80;51.50;;;;;;5150528;27;45329;-72
2023/07/05 09:37:59;;;;;;;6.22;2.80;;;25.80;50.90;;;;;;5151087;27;45502;-71
2023/07/05 09:40:28;;;;;;;9.60;3.25;;;25.90;51.00;;;;;;5150485;27;46634;-71
2023/07/05 09:42:58;;;;;;;6.80;3.63;;;25.80;50.40;;;;;;5144891;27;45486;-66
2023/07/05 09:45:25;;;;;;;6.93;2.90;;;25.70;48.90;;;;;;5144999;27;45414;-70
2023/07/05 09:47:55;;;;;;;5.70;3.00;;;25.70;49.20;;;;;;5146540;27;45493;-72
2023/07/05 09:50:22;;;;;;;4.72;2.70;;;25.60;49.70;;;;;;5141882;27;45418;-70
2023/07/05 09:52:50;;;;;;;3.70;2.58;;;25.60;48.80;;;;;;5144769;27;45235;-70
2023/07/05 09:55:18;;;;;;;3.88;2.70;;;25.60;48.20;;;;;;5148388;27;45301;-70
2023/07/05 09:57:45;;;;;;;3.67;2.55;;;25.60;48.30;;;;;;5150145;27;45482;-67
2023/07/05 10:00:24;;;;;;;3.13;2.28;;;25.60;48.90;;;;;;5145240;27;46514;-69
2023/07/05 10:03:03;;;;;;;3.22;2.58;;;25.60;47.90;;;;;;5141629;27;45383;-67
2023/07/05 10:05:30;;;;;;;2.92;2.33;;;25.60;47.90;;;;;;5141104;27;45522;-70
2023/07/05 10:07:58;;;;;;;4.45;2.58;;;25.60;47.40;;;;;;5150725;27;45422;-73
2023/07/05 10:10:26;;;;;;;5.30;2.65;;;25.50;48.10;;;;;;5150370;27;45329;-76
2023/07/05 10:12:58;;;;;;;6.30;3.03;;;25.60;47.50;;;;;;5149454;27;45324;-73
2023/07/05 10:15:27;;;;;;;5.35;3.10;;;25.60;46.70;;;;;;5143785;27;45472;-74
2023/07/05 10:17:55;;;;;;;5.03;3.03;;;25.60;47.20;;;;;;5146202;27;45692;-71
2023/07/05 10:20:24;;;;;;;3.15;2.80;;;25.70;46.30;;;;;;5135463;27;47156;-71
2023/07/05 10:22:58;;;;;;;4.53;2.72;;;25.70;46.50;;;;;;5141984;27;45235;-69
2023/07/05 10:25:25;;;;;;;3.08;2.67;;;25.70;45.40;;;;;;5143947;27;45430;-69
2023/07/05 10:27:52;;;;;;;6.35;3.22;;;25.80;45.90;;;;;;5147857;27;45484;-67
2023/07/05 10:30:20;;;;;;;4.22;3.13;;;25.80;45.50;;;;;;5148627;27;46648;-71
2023/07/05 10:32:50;;;;;;;5.53;2.78;;;25.80;45.00;;;;;;5141689;27;45385;-70
2023/07/05 10:35:21;;;;;;;6.28;2.67;;;25.80;45.10;;;;;;5149175;27;45183;-70
2023/07/05 10:37:48;;;;;;;6.15;2.85;;;26.00;45.80;;;;;;5145473;27;45461;-67
2023/07/05 10:40:15;;;;;;;6.25;3.42;;;26.00;45.50;;;;;;5147411;27;45480;-68
2023/07/05 10:42:48;;;;;;;3.60;3.08;;;26.00;44.80;;;;;;5146759;27;45249;-67
2023/07/05 10:45:17;;;;;;;3.88;3.30;;;26.00;44.10;;;;;;5140668;27;45431;-71
2023/07/05 10:47:43;;;;;;;4.82;3.10;;;26.00;44.00;;;;;;5148808;27;45261;-65
2023/07/05 10:50:14;;;;;;;15.35;9.05;;;26.00;43.90;;;;;;5146942;27;45497;-69
2023/07/05 10:52:47;;;;;;;5.43;3.58;;;26.10;43.30;;;;;;5148388;27;45365;-70
2023/07/05 10:55:14;;;;;;;4.68;2.65;;;26.10;42.60;;;;;;5144657;27;45439;-69
2023/07/05 10:57:42;;;;;;;3.63;2.70;;;26.10;40.80;;;;;;5145038;27;45360;-69
2023/07/05 11:00:15;;;;;;;4.55;2.88;;;26.00;41.70;;;;;;5148108;27;45461;-73
2023/07/05 11:02:45;;;;;;;4.47;2.90;;;26.00;42.40;;;;;;5148530;27;45374;-73
2023/07/05 11:05:21;;;;;;;4.30;3.10;;;26.20;42.70;;;;;;5144004;27;45261;-72
2023/07/05 11:07:48;;;;;;;3.53;2.70;;;26.30;41.90;;;;;;5144713;27;45495;-72
2023/07/05 11:10:15;;;;;;;3.08;2.45;;;26.40;41.80;;;;;;5147699;27;46761;-73
2023/07/05 11:12:42;;;;;;;3.35;2.67;;;26.50;41.60;;;;;;5140481;27;45388;-76
2023/07/05 11:15:10;;;;;;;6.13;2.42;;;26.50;39.70;;;;;;5136468;27;45540;-76
2023/07/05 11:17:38;;;;;;;4.80;2.03;;;26.50;39.10;;;;;;5142448;27;45444;-70
2023/07/05 11:20:41;;;;;;;2.60;2.40;;;26.40;38.50;;;;;;5148211;27;46383;-74
2023/07/05 11:23:10;;;;;;;3.20;2.00;;;26.40;37.10;;;;;;5136034;27;45345;-76
2023/07/05 11:25:58;;;;;;;5.30;2.08;;;26.30;34.50;;;;;;5145570;27;45461;-69
2023/07/05 11:28:32;;;;;;;4.00;2.15;;;26.40;36.40;;;;;;5146085;27;45363;-70
2023/07/05 11:30:59;;;;;;;7.63;2.00;;;26.40;37.70;;;;;;5140482;27;46329;-70
2023/07/05 11:33:26;;;;;;;3.50;2.25;;;26.50;37.90;;;;;;5154212;27;45374;-71
2023/07/05 11:35:54;;;;;;;2.75;2.15;;;26.60;38.10;;;;;;5155996;27;45443;-72
2023/07/05 11:38:57;;;;;;;6.00;2.03;;;26.70;38.20;;;;;;5152589;27;45451;-73
2023/07/05 11:41:29;;;;;;;2.70;1.77;;;26.80;38.10;;;;;;5148106;27;45424;-71
2023/07/05 11:43:56;;;;;;;2.13;1.90;;;26.80;37.50;;;;;;5148635;27;45432;-73
2023/07/05 11:46:37;;;;;;;2.30;2.10;;;26.90;37.90;;;;;;5148723;27;45414;-71
2023/07/05 11:49:31;;;;;;;6.07;2.83;;;27.00;38.80;;;;;;5148716;27;45184;-70
2023/07/05 11:51:59;;;;;;;2.67;1.90;;;27.10;39.00;;;;;;5142367;27;46416;-70
2023/07/05 11:54:31;;;;;;;4.63;2.35;;;27.20;39.30;;;;;;5148290;27;45350;-70
2023/07/05 11:56:58;;;;;;;3.42;2.15;;;27.20;38.70;;;;;;5145551;27;45636;-71
2023/07/05 11:59:25;;;;;;;4.32;1.90;;;27.30;38.80;;;;;;5149327;27;45376;-74
2023/07/05 12:01:52;;;;;;;8.75;2.45;;;27.30;39.60;;;;;;5145992;27;45365;-72
2023/07/05 12:04:22;;;;;;;9.93;2.53;;;27.40;39.40;;;;;;5148934;27;45279;-71
2023/07/05 12:06:50;;;;;;;4.38;2.58;;;27.40;39.60;;;;;;5146037;27;45196;-71
2023/07/05 12:09:19;;;;;;;4.97;1.90;;;27.50;39.90;;;;;;5149041;27;45321;-72
2023/07/05 12:11:54;;;;;;;2.70;2.10;;;27.50;40.20;;;;;;5147989;27;45647;-71
2023/07/05 12:14:21;;;;;;;3.33;2.15;;;27.60;40.50;;;;;;5148229;27;45280;-73
2023/07/05 12:16:48;;;;;;;4.80;2.00;;;27.60;40.50;;;;;;5150885;27;45402;-73
2023/07/05 12:19:16;;;;;;;3.30;2.00;;;27.70;40.70;;;;;;5152138;27;44770;-73
2023/07/05 12:21:43;;;;;;;3.47;2.00;;;27.80;40.70;;;;;;5150542;27;45648;-70
2023/07/05 12:24:10;;;;;;;5.45;2.53;;;27.80;40.90;;;;;;5152480;27;45147;-71
2023/07/05 12:26:39;;;;;;;7.30;2.45;;;27.90;41.20;;;;;;5152422;27;45204;-75
2023/07/05 12:29:22;;;;;;;6.18;2.20;;;27.90;41.00;;;;;;5152001;27;45463;-75
2023/07/05 12:31:50;;;;;;;10.95;2.50;;;28.00;41.00;;;;;;5152526;27;46592;-72
2023/07/05 12:34:19;;;;;;;5.78;2.33;;;28.00;40.90;;;;;;5152310;27;45228;-72
2023/07/05 12:36:46;;;;;;;8.00;2.40;;;28.00;40.20;;;;;;5152034;27;45357;-72
2023/07/05 12:39:15;;;;;;;5.82;2.00;;;28.10;41.00;;;;;;5151907;27;45310;-73
2023/07/05 12:41:42;;;;;;;8.02;2.22;;;28.10;41.00;;;;;;5152233;27;46374;-72
2023/07/05 12:44:14;;;;;;;4.13;2.00;;;28.10;40.80;;;;;;5152084;27;45283;-73
2023/07/05 12:46:42;;;;;;;3.67;1.92;;;28.20;41.10;;;;;;5152477;27;45319;-71
2023/07/05 12:49:12;;;;;;;4.05;2.30;;;28.20;41.10;;;;;;5152160;27;45309;-74
2023/07/05 12:51:48;;;;;;;4.05;1.83;;;28.30;40.70;;;;;;5151242;27;45378;-71
2023/07/05 12:54:15;;;;;;;5.15;2.53;;;28.30;40.80;;;;;;5151776;27;45439;-71